EWG7F EDDL-LGTS
Flight info
| Callsign | EWG7F |
|---|---|
| Flight time | 2h 9m |
| Altitude | 35000 |
| Route | DODEN7Z DODEN Y853 BOMBI/N0446F370 DCT DETEV DCT DINKU/N0441F330 M867 XERUM DCT BAVAX DCT RADIZ/N0439F370 DCT NIPEL DCT NEMEK DCT MAVAR N130 ALIKO |
| Aircraft | A319/M-SDE3FGHIRWY/LB1 |
Departure
| Time | 2026-05-06 05:46 |
|---|---|
| Airport | Düsseldorf Airport (EDDL) |
Arrival
| Time | 2026-05-06 07:56 |
|---|---|
| Airport | Thessaloniki Macedonia International Airport (LGTS) |
| Time | Latitude | Longitude | Altitude | Speed | Heading |
|---|---|---|---|---|---|
| 2026-05-06 05:30 | 51.28041 | 6.76367 | 125 ft | 0 kts | 197° |
| 2026-05-06 05:37 | 51.28042 | 6.76367 | 118 ft | 2 kts | 197° |
| 2026-05-06 05:37 | 51.28058 | 6.76374 | 114 ft | 2 kts | 193° |
| 2026-05-06 05:37 | 51.28074 | 6.76380 | 114 ft | 2 kts | 189° |
| 2026-05-06 05:37 | 51.28090 | 6.76384 | 113 ft | 2 kts | 184° |
| 2026-05-06 05:38 | 51.28107 | 6.76385 | 113 ft | 2 kts | 175° |
| 2026-05-06 05:38 | 51.28123 | 6.76381 | 116 ft | 2 kts | 161° |
| 2026-05-06 05:38 | 51.28138 | 6.76371 | 117 ft | 2 kts | 147° |
| 2026-05-06 05:38 | 51.28152 | 6.76356 | 115 ft | 2 kts | 176° |
| 2026-05-06 05:39 | 51.28169 | 6.76355 | 116 ft | 2 kts | 179° |
| 2026-05-06 05:39 | 51.28185 | 6.76357 | 115 ft | 2 kts | 190° |
| 2026-05-06 05:39 | 51.28201 | 6.76364 | 115 ft | 2 kts | 211° |
| 2026-05-06 05:39 | 51.28209 | 6.76372 | 115 ft | 1 kts | 235° |
| 2026-05-06 05:40 | 51.28209 | 6.76373 | 115 ft | 0 kts | 236° |
| 2026-05-06 05:41 | 51.28208 | 6.76370 | 115 ft | 1 kts | 234° |
| 2026-05-06 05:41 | 51.28198 | 6.76347 | 115 ft | 4 kts | 234° |
| 2026-05-06 05:41 | 51.28180 | 6.76300 | 115 ft | 6 kts | 252° |
| 2026-05-06 05:42 | 51.28198 | 6.76228 | 115 ft | 9 kts | 296° |
| 2026-05-06 05:42 | 51.28183 | 6.76134 | 117 ft | 9 kts | 234° |
| 2026-05-06 05:42 | 51.28144 | 6.76052 | 116 ft | 10 kts | 232° |
| 2026-05-06 05:42 | 51.28099 | 6.75958 | 117 ft | 11 kts | 232° |
| 2026-05-06 05:43 | 51.28052 | 6.75859 | 117 ft | 11 kts | 232° |
| 2026-05-06 05:43 | 51.28004 | 6.75757 | 117 ft | 12 kts | 233° |
| 2026-05-06 05:43 | 51.27955 | 6.75654 | 118 ft | 12 kts | 232° |
| 2026-05-06 05:43 | 51.27899 | 6.75538 | 118 ft | 14 kts | 232° |
| 2026-05-06 05:44 | 51.27843 | 6.75411 | 116 ft | 13 kts | 250° |
| 2026-05-06 05:44 | 51.27885 | 6.75309 | 118 ft | 10 kts | 329° |
| 2026-05-06 05:44 | 51.27951 | 6.75255 | 114 ft | 12 kts | 338° |
| 2026-05-06 05:44 | 51.28006 | 6.75289 | 114 ft | 9 kts | 52° |
| 2026-05-06 05:45 | 51.28011 | 6.75301 | 114 ft | 0 kts | 52° |
| 2026-05-06 05:45 | 51.28049 | 6.75380 | 116 ft | 32 kts | 52° |
| 2026-05-06 05:45 | 51.28308 | 6.75921 | 117 ft | 90 kts | 53° |
| 2026-05-06 05:46 | 51.28806 | 6.76965 | 122 ft | 144 kts | 52° |
| 2026-05-06 05:46 | 51.29436 | 6.78270 | 580 ft | 153 kts | 50° |
| 2026-05-06 05:46 | 51.30093 | 6.79663 | 1237 ft | 156 kts | 53° |
| 2026-05-06 05:46 | 51.30784 | 6.81136 | 1689 ft | 177 kts | 53° |
| 2026-05-06 05:47 | 51.31563 | 6.82804 | 2101 ft | 197 kts | 54° |
| 2026-05-06 05:47 | 51.32196 | 6.84910 | 2391 ft | 229 kts | 83° |
| 2026-05-06 05:47 | 51.31875 | 6.87469 | 2943 ft | 252 kts | 115° |
| 2026-05-06 05:47 | 51.31119 | 6.90064 | 3819 ft | 263 kts | 116° |
| 2026-05-06 05:48 | 51.30314 | 6.92749 | 4744 ft | 272 kts | 116° |
| 2026-05-06 05:48 | 51.29464 | 6.95508 | 5703 ft | 279 kts | 117° |
| 2026-05-06 05:48 | 51.28618 | 6.98280 | 6814 ft | 276 kts | 117° |
| 2026-05-06 05:48 | 51.27801 | 7.01097 | 7688 ft | 285 kts | 116° |
| 2026-05-06 05:49 | 51.27006 | 7.04040 | 8627 ft | 288 kts | 115° |
| 2026-05-06 05:49 | 51.26240 | 7.06981 | 9747 ft | 288 kts | 115° |
| 2026-05-06 05:49 | 51.25461 | 7.09998 | 10297 ft | 305 kts | 115° |
| 2026-05-06 05:49 | 51.24886 | 7.12170 | 10517 ft | 321 kts | 115° |
| 2026-05-06 05:50 | 51.23981 | 7.15492 | 10829 ft | 341 kts | 116° |
| 2026-05-06 05:50 | 51.22982 | 7.19039 | 11133 ft | 361 kts | 116° |
| 2026-05-06 05:50 | 51.21915 | 7.22789 | 11266 ft | 383 kts | 116° |
| 2026-05-06 05:50 | 51.20779 | 7.26781 | 11661 ft | 395 kts | 116° |
| 2026-05-06 05:51 | 51.19653 | 7.30744 | 12253 ft | 400 kts | 116° |
| 2026-05-06 05:51 | 51.18395 | 7.34785 | 12881 ft | 403 kts | 124° |
| 2026-05-06 05:51 | 51.16635 | 7.38202 | 13529 ft | 405 kts | 135° |
| 2026-05-06 05:51 | 51.14697 | 7.41489 | 14137 ft | 408 kts | 135° |
| 2026-05-06 05:52 | 51.12731 | 7.44786 | 14763 ft | 411 kts | 135° |
| 2026-05-06 05:52 | 51.10754 | 7.48080 | 15375 ft | 414 kts | 135° |
| 2026-05-06 05:52 | 51.08755 | 7.51402 | 15968 ft | 416 kts | 135° |
| 2026-05-06 05:52 | 51.06746 | 7.54735 | 16549 ft | 419 kts | 135° |
| 2026-05-06 05:53 | 51.04726 | 7.58093 | 17120 ft | 422 kts | 135° |
| 2026-05-06 05:53 | 51.02689 | 7.61483 | 17682 ft | 425 kts | 135° |
| 2026-05-06 05:53 | 51.00642 | 7.64893 | 18211 ft | 428 kts | 135° |
| 2026-05-06 05:53 | 50.98582 | 7.68318 | 18676 ft | 431 kts | 135° |
| 2026-05-06 05:54 | 50.96503 | 7.71766 | 19147 ft | 433 kts | 135° |
| 2026-05-06 05:54 | 50.94414 | 7.75227 | 19615 ft | 436 kts | 135° |
| 2026-05-06 05:54 | 50.92313 | 7.78706 | 20074 ft | 438 kts | 135° |
| 2026-05-06 05:54 | 50.90176 | 7.82238 | 20525 ft | 440 kts | 135° |
| 2026-05-06 05:55 | 50.88049 | 7.85749 | 20952 ft | 442 kts | 135° |
| 2026-05-06 05:55 | 50.85915 | 7.89272 | 21366 ft | 444 kts | 135° |
| 2026-05-06 05:55 | 50.83768 | 7.92812 | 21763 ft | 446 kts | 135° |
| 2026-05-06 05:55 | 50.81612 | 7.96359 | 22146 ft | 448 kts | 135° |
| 2026-05-06 05:56 | 50.79442 | 7.99915 | 22530 ft | 450 kts | 135° |
| 2026-05-06 05:56 | 50.77263 | 8.03478 | 22899 ft | 452 kts | 135° |
| 2026-05-06 05:56 | 50.75066 | 8.07068 | 23256 ft | 455 kts | 135° |
| 2026-05-06 05:56 | 50.72891 | 8.10616 | 23553 ft | 457 kts | 135° |
| 2026-05-06 05:57 | 50.70651 | 8.14268 | 23868 ft | 458 kts | 135° |
| 2026-05-06 05:57 | 50.68435 | 8.17880 | 24169 ft | 460 kts | 135° |
| 2026-05-06 05:57 | 50.66230 | 8.21469 | 24462 ft | 462 kts | 136° |
| 2026-05-06 05:57 | 50.63961 | 8.25157 | 24759 ft | 463 kts | 136° |
| 2026-05-06 05:58 | 50.61744 | 8.28756 | 25043 ft | 465 kts | 136° |
| 2026-05-06 05:58 | 50.59457 | 8.32458 | 25324 ft | 466 kts | 136° |
| 2026-05-06 05:58 | 50.57192 | 8.36115 | 25606 ft | 468 kts | 136° |
| 2026-05-06 05:58 | 50.54914 | 8.39789 | 25904 ft | 469 kts | 136° |
| 2026-05-06 05:59 | 50.52650 | 8.43443 | 26311 ft | 467 kts | 136° |
| 2026-05-06 05:59 | 50.50382 | 8.47102 | 26741 ft | 465 kts | 136° |
| 2026-05-06 05:59 | 50.48129 | 8.50733 | 27177 ft | 464 kts | 136° |
| 2026-05-06 05:59 | 50.45905 | 8.54312 | 27618 ft | 462 kts | 136° |
| 2026-05-06 06:00 | 50.43634 | 8.57951 | 28080 ft | 461 kts | 136° |
| 2026-05-06 06:00 | 50.41424 | 8.61482 | 28545 ft | 459 kts | 136° |
| 2026-05-06 06:00 | 50.39186 | 8.65059 | 29029 ft | 457 kts | 136° |
| 2026-05-06 06:00 | 50.36965 | 8.68611 | 29531 ft | 455 kts | 136° |
| 2026-05-06 06:01 | 50.34750 | 8.72148 | 29997 ft | 454 kts | 137° |
| 2026-05-06 06:01 | 50.32531 | 8.75681 | 30375 ft | 453 kts | 137° |
| 2026-05-06 06:01 | 50.30315 | 8.79195 | 30724 ft | 454 kts | 137° |
| 2026-05-06 06:01 | 50.28097 | 8.82703 | 31057 ft | 454 kts | 137° |
| 2026-05-06 06:02 | 50.25874 | 8.86219 | 31399 ft | 455 kts | 137° |
| 2026-05-06 06:02 | 50.23649 | 8.89738 | 31748 ft | 455 kts | 137° |
| 2026-05-06 06:02 | 50.21421 | 8.93258 | 32103 ft | 456 kts | 137° |
| 2026-05-06 06:02 | 50.19190 | 8.96779 | 32445 ft | 456 kts | 137° |
| 2026-05-06 06:03 | 50.16954 | 9.00306 | 32799 ft | 457 kts | 137° |
| 2026-05-06 06:03 | 50.14718 | 9.03829 | 33154 ft | 457 kts | 138° |
| 2026-05-06 06:03 | 50.12483 | 9.07347 | 33518 ft | 457 kts | 138° |
| 2026-05-06 06:03 | 50.10240 | 9.10871 | 33867 ft | 457 kts | 138° |
| 2026-05-06 06:04 | 50.08000 | 9.14382 | 34173 ft | 457 kts | 138° |
| 2026-05-06 06:04 | 50.05757 | 9.17887 | 34494 ft | 457 kts | 138° |
| 2026-05-06 06:04 | 50.03506 | 9.21396 | 34717 ft | 458 kts | 138° |
| 2026-05-06 06:04 | 50.01257 | 9.24897 | 34764 ft | 456 kts | 138° |
| 2026-05-06 06:05 | 49.96786 | 9.31864 | 34774 ft | 455 kts | 138° |
| 2026-05-06 06:05 | 49.92312 | 9.38812 | 34774 ft | 455 kts | 139° |
| 2026-05-06 06:06 | 49.87829 | 9.45742 | 34779 ft | 455 kts | 139° |
| 2026-05-06 06:06 | 49.83346 | 9.52667 | 34782 ft | 455 kts | 139° |
| 2026-05-06 06:07 | 49.78813 | 9.59502 | 34782 ft | 455 kts | 140° |
| 2026-05-06 06:07 | 49.74184 | 9.66164 | 34769 ft | 454 kts | 141° |
| 2026-05-06 06:08 | 49.69539 | 9.72785 | 34772 ft | 455 kts | 141° |
| 2026-05-06 06:08 | 49.64906 | 9.79450 | 34772 ft | 455 kts | 141° |
| 2026-05-06 06:09 | 49.60282 | 9.86137 | 34776 ft | 456 kts | 141° |
| 2026-05-06 06:09 | 49.55648 | 9.92810 | 34783 ft | 456 kts | 141° |
| 2026-05-06 06:10 | 49.51004 | 9.99457 | 34783 ft | 456 kts | 142° |
| 2026-05-06 06:10 | 49.46358 | 10.06084 | 34786 ft | 456 kts | 142° |
| 2026-05-06 06:11 | 49.41706 | 10.12704 | 34789 ft | 456 kts | 142° |
| 2026-05-06 06:11 | 49.37054 | 10.19319 | 34791 ft | 455 kts | 142° |
| 2026-05-06 06:12 | 49.32403 | 10.25915 | 34798 ft | 455 kts | 142° |
| 2026-05-06 06:12 | 49.27750 | 10.32479 | 34814 ft | 455 kts | 142° |
| 2026-05-06 06:13 | 49.23029 | 10.38754 | 34828 ft | 448 kts | 150° |
| 2026-05-06 06:13 | 49.17698 | 10.43710 | 34844 ft | 444 kts | 154° |
| 2026-05-06 06:14 | 49.12424 | 10.48491 | 34852 ft | 444 kts | 154° |
| 2026-05-06 06:14 | 49.07126 | 10.53305 | 34857 ft | 443 kts | 154° |
| 2026-05-06 06:15 | 49.01841 | 10.58109 | 34853 ft | 442 kts | 154° |
| 2026-05-06 06:15 | 48.96562 | 10.62880 | 34853 ft | 441 kts | 155° |
| 2026-05-06 06:16 | 48.91283 | 10.67631 | 34850 ft | 441 kts | 155° |
| 2026-05-06 06:16 | 48.86010 | 10.72384 | 34847 ft | 440 kts | 155° |
| 2026-05-06 06:17 | 48.80882 | 10.77505 | 34837 ft | 447 kts | 144° |
| 2026-05-06 06:17 | 48.76566 | 10.84435 | 34827 ft | 453 kts | 137° |
| 2026-05-06 06:18 | 48.72352 | 10.91523 | 34817 ft | 453 kts | 138° |
| 2026-05-06 06:18 | 48.68109 | 10.98600 | 34811 ft | 453 kts | 138° |
| 2026-05-06 06:19 | 48.63870 | 11.05656 | 34808 ft | 454 kts | 138° |
| 2026-05-06 06:19 | 48.59626 | 11.12718 | 34808 ft | 454 kts | 138° |
| 2026-05-06 06:20 | 48.55376 | 11.19772 | 34808 ft | 454 kts | 139° |
| 2026-05-06 06:20 | 48.51120 | 11.26817 | 34805 ft | 455 kts | 139° |
| 2026-05-06 06:21 | 48.46850 | 11.33869 | 34803 ft | 455 kts | 139° |
| 2026-05-06 06:21 | 48.42581 | 11.40899 | 34818 ft | 455 kts | 139° |
| 2026-05-06 06:22 | 48.38293 | 11.47937 | 34825 ft | 456 kts | 139° |
| 2026-05-06 06:22 | 48.34002 | 11.54959 | 34829 ft | 456 kts | 139° |
| 2026-05-06 06:23 | 48.29698 | 11.61981 | 34832 ft | 457 kts | 140° |
| 2026-05-06 06:23 | 48.25364 | 11.68956 | 34825 ft | 456 kts | 142° |
| 2026-05-06 06:24 | 48.20799 | 11.75456 | 34822 ft | 452 kts | 145° |
| 2026-05-06 06:24 | 48.16078 | 11.81706 | 34825 ft | 452 kts | 146° |
| 2026-05-06 06:25 | 48.11379 | 11.87978 | 34823 ft | 453 kts | 145° |
| 2026-05-06 06:26 | 48.04409 | 11.97532 | 34816 ft | 454 kts | 144° |
| 2026-05-06 06:26 | 47.99748 | 12.03902 | 34816 ft | 453 kts | 145° |
| 2026-05-06 06:27 | 47.95077 | 12.10238 | 34811 ft | 453 kts | 145° |
| 2026-05-06 06:27 | 47.90406 | 12.16556 | 34805 ft | 454 kts | 145° |
| 2026-05-06 06:28 | 47.85731 | 12.22874 | 34804 ft | 454 kts | 145° |
| 2026-05-06 06:28 | 47.81048 | 12.29192 | 34815 ft | 454 kts | 145° |
| 2026-05-06 06:29 | 47.76374 | 12.35476 | 34811 ft | 454 kts | 145° |
| 2026-05-06 06:29 | 47.72470 | 12.40711 | 34808 ft | 454 kts | 145° |
| 2026-05-06 06:30 | 47.67778 | 12.46989 | 34806 ft | 454 kts | 145° |
| 2026-05-06 06:30 | 47.63095 | 12.53237 | 34812 ft | 454 kts | 145° |
| 2026-05-06 06:31 | 47.58406 | 12.59520 | 34807 ft | 454 kts | 144° |
| 2026-05-06 06:31 | 47.53797 | 12.65763 | 34815 ft | 454 kts | 144° |
| 2026-05-06 06:32 | 47.49144 | 12.72057 | 34818 ft | 453 kts | 144° |
| 2026-05-06 06:32 | 47.44471 | 12.78335 | 34822 ft | 453 kts | 144° |
| 2026-05-06 06:33 | 47.39802 | 12.84582 | 34825 ft | 453 kts | 144° |
| 2026-05-06 06:33 | 47.35136 | 12.90827 | 34835 ft | 453 kts | 144° |
| 2026-05-06 06:34 | 47.30464 | 12.97048 | 34841 ft | 453 kts | 144° |
| 2026-05-06 06:34 | 47.25780 | 13.03269 | 34847 ft | 453 kts | 144° |
| 2026-05-06 06:35 | 47.21128 | 13.09442 | 34850 ft | 453 kts | 145° |
| 2026-05-06 06:35 | 47.16440 | 13.15639 | 34867 ft | 453 kts | 145° |
| 2026-05-06 06:36 | 47.11756 | 13.21817 | 34874 ft | 453 kts | 145° |
| 2026-05-06 06:36 | 47.07058 | 13.27999 | 34879 ft | 453 kts | 145° |
| 2026-05-06 06:37 | 47.02358 | 13.34177 | 34887 ft | 453 kts | 145° |
| 2026-05-06 06:37 | 46.97653 | 13.40339 | 34895 ft | 454 kts | 146° |
| 2026-05-06 06:38 | 46.92942 | 13.46486 | 34895 ft | 454 kts | 146° |
| 2026-05-06 06:38 | 46.88226 | 13.52634 | 34898 ft | 454 kts | 146° |
| 2026-05-06 06:39 | 46.83507 | 13.58778 | 34898 ft | 455 kts | 146° |
| 2026-05-06 06:39 | 46.78775 | 13.64924 | 34896 ft | 456 kts | 146° |
| 2026-05-06 06:40 | 46.74027 | 13.71070 | 34899 ft | 456 kts | 146° |
| 2026-05-06 06:40 | 46.69267 | 13.77212 | 34890 ft | 457 kts | 146° |
| 2026-05-06 06:41 | 46.64529 | 13.83307 | 34902 ft | 458 kts | 146° |
| 2026-05-06 06:41 | 46.59739 | 13.89448 | 34905 ft | 459 kts | 146° |
| 2026-05-06 06:42 | 46.54930 | 13.95599 | 34910 ft | 461 kts | 146° |
| 2026-05-06 06:42 | 46.50111 | 14.01765 | 34913 ft | 462 kts | 146° |
| 2026-05-06 06:43 | 46.45355 | 14.08076 | 34907 ft | 465 kts | 143° |
| 2026-05-06 06:43 | 46.40750 | 14.14689 | 34909 ft | 467 kts | 142° |
| 2026-05-06 06:44 | 46.36145 | 14.21353 | 34925 ft | 468 kts | 142° |
| 2026-05-06 06:44 | 46.31490 | 14.27944 | 34934 ft | 468 kts | 143° |
| 2026-05-06 06:45 | 46.26798 | 14.34481 | 34945 ft | 469 kts | 143° |
| 2026-05-06 06:45 | 46.22097 | 14.41028 | 34944 ft | 470 kts | 142° |
| 2026-05-06 06:46 | 46.17380 | 14.47601 | 34944 ft | 471 kts | 142° |
| 2026-05-06 06:46 | 46.12698 | 14.54129 | 34942 ft | 471 kts | 142° |
| 2026-05-06 06:47 | 46.07972 | 14.60690 | 34936 ft | 472 kts | 142° |
| 2026-05-06 06:47 | 46.03235 | 14.67252 | 34930 ft | 473 kts | 142° |
| 2026-05-06 06:48 | 45.98495 | 14.73809 | 34934 ft | 473 kts | 142° |
| 2026-05-06 06:48 | 45.93741 | 14.80369 | 34933 ft | 473 kts | 142° |
| 2026-05-06 06:49 | 45.88977 | 14.86915 | 34937 ft | 473 kts | 142° |
| 2026-05-06 06:49 | 45.84209 | 14.93438 | 34941 ft | 473 kts | 142° |
| 2026-05-06 06:50 | 45.79442 | 14.99946 | 34942 ft | 474 kts | 142° |
| 2026-05-06 06:50 | 45.74676 | 15.06457 | 34950 ft | 474 kts | 142° |
| 2026-05-06 06:51 | 45.69900 | 15.12954 | 34943 ft | 474 kts | 142° |
| 2026-05-06 06:51 | 45.65152 | 15.19410 | 34951 ft | 474 kts | 142° |
| 2026-05-06 06:52 | 45.60368 | 15.25891 | 34943 ft | 474 kts | 142° |
| 2026-05-06 06:52 | 45.55596 | 15.32386 | 34946 ft | 475 kts | 141° |
| 2026-05-06 06:53 | 45.50981 | 15.39146 | 34947 ft | 477 kts | 139° |
| 2026-05-06 06:53 | 45.46428 | 15.46028 | 34951 ft | 477 kts | 139° |
| 2026-05-06 06:54 | 45.41841 | 15.52840 | 34955 ft | 476 kts | 139° |
| 2026-05-06 06:54 | 45.37214 | 15.59583 | 34954 ft | 476 kts | 140° |
| 2026-05-06 06:55 | 45.32611 | 15.66264 | 34949 ft | 476 kts | 140° |
| 2026-05-06 06:55 | 45.27984 | 15.72987 | 34953 ft | 476 kts | 140° |
| 2026-05-06 06:56 | 45.23363 | 15.79710 | 34955 ft | 476 kts | 139° |
| 2026-05-06 06:56 | 45.18737 | 15.86423 | 34954 ft | 476 kts | 140° |
| 2026-05-06 06:57 | 45.14097 | 15.93119 | 34952 ft | 476 kts | 140° |
| 2026-05-06 06:57 | 45.09448 | 15.99818 | 34953 ft | 477 kts | 140° |
| 2026-05-06 06:58 | 45.04795 | 16.06511 | 34954 ft | 477 kts | 140° |
| 2026-05-06 06:58 | 45.00136 | 16.13196 | 34957 ft | 477 kts | 140° |
| 2026-05-06 06:59 | 44.95505 | 16.19819 | 34960 ft | 477 kts | 140° |
| 2026-05-06 06:59 | 44.90844 | 16.26476 | 34960 ft | 477 kts | 140° |
| 2026-05-06 07:00 | 44.86181 | 16.33120 | 34965 ft | 477 kts | 140° |
| 2026-05-06 07:00 | 44.81501 | 16.39773 | 34966 ft | 477 kts | 140° |
| 2026-05-06 07:01 | 44.76821 | 16.46394 | 34980 ft | 477 kts | 140° |
| 2026-05-06 07:01 | 44.72140 | 16.53004 | 34976 ft | 476 kts | 140° |
| 2026-05-06 07:02 | 44.67463 | 16.59603 | 34975 ft | 476 kts | 139° |
| 2026-05-06 07:02 | 44.62797 | 16.66174 | 34990 ft | 476 kts | 139° |
| 2026-05-06 07:03 | 44.58121 | 16.72730 | 34993 ft | 475 kts | 139° |
| 2026-05-06 07:03 | 44.53480 | 16.79220 | 34995 ft | 474 kts | 139° |
| 2026-05-06 07:04 | 44.48809 | 16.85742 | 34999 ft | 474 kts | 139° |
| 2026-05-06 07:04 | 44.44138 | 16.92241 | 35003 ft | 473 kts | 139° |
| 2026-05-06 07:05 | 44.39471 | 16.98735 | 35011 ft | 473 kts | 139° |
| 2026-05-06 07:05 | 44.34805 | 17.05211 | 35012 ft | 473 kts | 139° |
| 2026-05-06 07:06 | 44.30135 | 17.11668 | 35013 ft | 472 kts | 139° |
| 2026-05-06 07:06 | 44.25462 | 17.18120 | 35013 ft | 472 kts | 139° |
| 2026-05-06 07:07 | 44.20775 | 17.24562 | 35015 ft | 473 kts | 139° |
| 2026-05-06 07:07 | 44.16092 | 17.30996 | 35017 ft | 473 kts | 139° |
| 2026-05-06 07:08 | 44.11407 | 17.37429 | 35018 ft | 473 kts | 139° |
| 2026-05-06 07:08 | 44.06739 | 17.43811 | 35020 ft | 473 kts | 139° |
| 2026-05-06 07:09 | 44.02036 | 17.50211 | 35021 ft | 474 kts | 139° |
| 2026-05-06 07:09 | 43.97320 | 17.56620 | 35020 ft | 474 kts | 139° |
| 2026-05-06 07:10 | 43.92603 | 17.63030 | 35027 ft | 474 kts | 139° |
| 2026-05-06 07:10 | 43.87883 | 17.69424 | 35021 ft | 474 kts | 139° |
| 2026-05-06 07:11 | 43.83181 | 17.75772 | 35027 ft | 475 kts | 139° |
| 2026-05-06 07:11 | 43.78451 | 17.82153 | 35032 ft | 475 kts | 139° |
| 2026-05-06 07:12 | 43.73716 | 17.88515 | 35041 ft | 475 kts | 139° |
| 2026-05-06 07:12 | 43.68973 | 17.94874 | 35028 ft | 475 kts | 139° |
| 2026-05-06 07:13 | 43.64215 | 18.01235 | 35033 ft | 475 kts | 139° |
| 2026-05-06 07:13 | 43.59468 | 18.07579 | 35033 ft | 476 kts | 139° |
| 2026-05-06 07:14 | 43.54738 | 18.13879 | 35044 ft | 476 kts | 139° |
| 2026-05-06 07:14 | 43.49980 | 18.20211 | 35042 ft | 476 kts | 139° |
| 2026-05-06 07:15 | 43.45213 | 18.26534 | 35045 ft | 476 kts | 139° |
| 2026-05-06 07:15 | 43.40439 | 18.32855 | 35042 ft | 476 kts | 139° |
| 2026-05-06 07:16 | 43.35659 | 18.39168 | 35046 ft | 477 kts | 139° |
| 2026-05-06 07:16 | 43.30868 | 18.45478 | 35046 ft | 477 kts | 139° |
| 2026-05-06 07:17 | 43.26106 | 18.51731 | 35050 ft | 477 kts | 139° |
| 2026-05-06 07:17 | 43.21305 | 18.58022 | 35053 ft | 477 kts | 139° |
| 2026-05-06 07:18 | 43.16494 | 18.64311 | 35054 ft | 478 kts | 139° |
| 2026-05-06 07:18 | 43.11687 | 18.70583 | 35059 ft | 478 kts | 139° |
| 2026-05-06 07:19 | 43.06856 | 18.76860 | 35060 ft | 478 kts | 139° |
| 2026-05-06 07:19 | 43.02038 | 18.83117 | 35059 ft | 478 kts | 139° |
| 2026-05-06 07:20 | 42.97213 | 18.89378 | 35068 ft | 479 kts | 139° |
| 2026-05-06 07:20 | 42.92379 | 18.95635 | 35072 ft | 479 kts | 139° |
| 2026-05-06 07:21 | 42.87541 | 19.01875 | 35071 ft | 479 kts | 139° |
| 2026-05-06 07:21 | 42.82692 | 19.08113 | 35071 ft | 479 kts | 139° |
| 2026-05-06 07:22 | 42.77875 | 19.14305 | 35074 ft | 479 kts | 139° |
| 2026-05-06 07:22 | 42.73021 | 19.20523 | 35079 ft | 480 kts | 139° |
| 2026-05-06 07:23 | 42.68144 | 19.26750 | 35080 ft | 480 kts | 139° |
| 2026-05-06 07:23 | 42.63280 | 19.32957 | 35080 ft | 480 kts | 139° |
| 2026-05-06 07:24 | 42.58423 | 19.39154 | 35080 ft | 480 kts | 139° |
| 2026-05-06 07:24 | 42.54361 | 19.44320 | 35083 ft | 481 kts | 139° |
| 2026-05-06 07:25 | 42.49471 | 19.50510 | 35083 ft | 481 kts | 139° |
| 2026-05-06 07:25 | 42.44584 | 19.56682 | 35081 ft | 481 kts | 139° |
| 2026-05-06 07:26 | 42.39680 | 19.62870 | 35085 ft | 481 kts | 139° |
| 2026-05-06 07:26 | 42.34783 | 19.69048 | 35089 ft | 482 kts | 139° |
| 2026-05-06 07:27 | 42.29874 | 19.75213 | 35088 ft | 482 kts | 139° |
| 2026-05-06 07:27 | 42.24963 | 19.81364 | 35087 ft | 482 kts | 139° |
| 2026-05-06 07:28 | 42.20075 | 19.87474 | 35086 ft | 482 kts | 139° |
| 2026-05-06 07:28 | 42.12684 | 19.96702 | 35081 ft | 483 kts | 139° |
| 2026-05-06 07:29 | 42.07745 | 20.02839 | 35081 ft | 483 kts | 139° |
| 2026-05-06 07:29 | 42.02800 | 20.08969 | 35083 ft | 484 kts | 139° |
| 2026-05-06 07:30 | 41.97846 | 20.15113 | 35083 ft | 484 kts | 139° |
| 2026-05-06 07:30 | 41.92885 | 20.21251 | 35089 ft | 485 kts | 139° |
| 2026-05-06 07:31 | 41.87946 | 20.27327 | 35087 ft | 485 kts | 139° |
| 2026-05-06 07:31 | 41.82974 | 20.33434 | 35090 ft | 485 kts | 139° |
| 2026-05-06 07:32 | 41.77993 | 20.39543 | 35093 ft | 486 kts | 139° |
| 2026-05-06 07:32 | 41.73001 | 20.45659 | 35096 ft | 486 kts | 139° |
| 2026-05-06 07:33 | 41.68121 | 20.51922 | 35094 ft | 488 kts | 129° |
| 2026-05-06 07:33 | 41.64426 | 20.59546 | 35094 ft | 488 kts | 122° |
| 2026-05-06 07:34 | 41.60872 | 20.67282 | 35091 ft | 489 kts | 121° |
| 2026-05-06 07:34 | 41.57325 | 20.75042 | 35091 ft | 489 kts | 121° |
| 2026-05-06 07:35 | 41.53766 | 20.82796 | 35087 ft | 490 kts | 121° |
| 2026-05-06 07:35 | 41.50228 | 20.90492 | 35090 ft | 490 kts | 121° |
| 2026-05-06 07:36 | 41.46656 | 20.98244 | 35089 ft | 490 kts | 121° |
| 2026-05-06 07:36 | 41.43070 | 21.05983 | 35090 ft | 491 kts | 122° |
| 2026-05-06 07:37 | 41.39484 | 21.13722 | 35085 ft | 491 kts | 121° |
| 2026-05-06 07:37 | 41.35888 | 21.21464 | 35084 ft | 491 kts | 121° |
| 2026-05-06 07:38 | 41.32287 | 21.29182 | 35085 ft | 491 kts | 121° |
| 2026-05-06 07:38 | 41.28699 | 21.36846 | 35085 ft | 491 kts | 121° |
| 2026-05-06 07:39 | 41.25072 | 21.44574 | 34816 ft | 493 kts | 121° |
| 2026-05-06 07:39 | 41.23257 | 21.48440 | 34579 ft | 494 kts | 121° |
| 2026-05-06 07:39 | 41.21439 | 21.52311 | 34338 ft | 495 kts | 121° |
| 2026-05-06 07:40 | 41.19614 | 21.56197 | 34096 ft | 496 kts | 121° |
| 2026-05-06 07:40 | 41.17789 | 21.60074 | 33829 ft | 496 kts | 121° |
| 2026-05-06 07:40 | 41.15951 | 21.63974 | 32804 ft | 501 kts | 121° |
| 2026-05-06 07:40 | 41.14085 | 21.67930 | 31659 ft | 508 kts | 121° |
| 2026-05-06 07:41 | 41.12212 | 21.71893 | 30723 ft | 509 kts | 121° |
| 2026-05-06 07:41 | 41.10308 | 21.75913 | 29484 ft | 515 kts | 121° |
| 2026-05-06 07:41 | 41.08401 | 21.79928 | 28364 ft | 514 kts | 121° |
| 2026-05-06 07:41 | 41.06507 | 21.83908 | 27040 ft | 513 kts | 121° |
| 2026-05-06 07:42 | 41.04587 | 21.87933 | 25689 ft | 513 kts | 121° |
| 2026-05-06 07:42 | 41.02716 | 21.91851 | 23870 ft | 512 kts | 121° |
| 2026-05-06 07:42 | 41.00801 | 21.95865 | 22290 ft | 501 kts | 122° |
| 2026-05-06 07:42 | 40.98962 | 21.99714 | 21030 ft | 491 kts | 122° |
| 2026-05-06 07:43 | 40.97181 | 22.03440 | 20102 ft | 482 kts | 122° |
| 2026-05-06 07:43 | 40.95407 | 22.07150 | 18958 ft | 469 kts | 122° |
| 2026-05-06 07:43 | 40.93681 | 22.10749 | 17746 ft | 455 kts | 122° |
| 2026-05-06 07:43 | 40.92018 | 22.14210 | 16723 ft | 437 kts | 122° |
| 2026-05-06 07:44 | 40.90391 | 22.17593 | 15736 ft | 434 kts | 122° |
| 2026-05-06 07:44 | 40.88781 | 22.20944 | 14782 ft | 431 kts | 122° |
| 2026-05-06 07:44 | 40.87179 | 22.24272 | 13883 ft | 428 kts | 122° |
| 2026-05-06 07:44 | 40.85595 | 22.27559 | 13129 ft | 419 kts | 122° |
| 2026-05-06 07:45 | 40.84036 | 22.30793 | 12068 ft | 417 kts | 123° |
| 2026-05-06 07:45 | 40.82530 | 22.33912 | 11247 ft | 396 kts | 123° |
| 2026-05-06 07:45 | 40.81112 | 22.36854 | 10908 ft | 365 kts | 123° |
| 2026-05-06 07:45 | 40.79803 | 22.39563 | 10726 ft | 335 kts | 123° |
| 2026-05-06 07:46 | 40.78598 | 22.42054 | 10590 ft | 310 kts | 123° |
| 2026-05-06 07:46 | 40.77463 | 22.44393 | 10296 ft | 299 kts | 123° |
| 2026-05-06 07:46 | 40.76353 | 22.46683 | 10059 ft | 293 kts | 123° |
| 2026-05-06 07:46 | 40.75263 | 22.48935 | 9870 ft | 289 kts | 123° |
| 2026-05-06 07:47 | 40.74189 | 22.51165 | 9747 ft | 288 kts | 122° |
| 2026-05-06 07:47 | 40.73454 | 22.53611 | 9569 ft | 289 kts | 99° |
| 2026-05-06 07:47 | 40.73444 | 22.56254 | 9219 ft | 289 kts | 86° |
| 2026-05-06 07:47 | 40.73598 | 22.58892 | 8835 ft | 288 kts | 85° |
| 2026-05-06 07:48 | 40.73763 | 22.61519 | 8450 ft | 287 kts | 85° |
| 2026-05-06 07:48 | 40.73930 | 22.64134 | 8076 ft | 286 kts | 85° |
| 2026-05-06 07:48 | 40.74099 | 22.66753 | 7697 ft | 285 kts | 85° |
| 2026-05-06 07:48 | 40.74267 | 22.69362 | 7301 ft | 285 kts | 85° |
| 2026-05-06 07:49 | 40.74434 | 22.71966 | 6913 ft | 285 kts | 85° |
| 2026-05-06 07:49 | 40.74598 | 22.74546 | 6527 ft | 284 kts | 85° |
| 2026-05-06 07:49 | 40.74761 | 22.77131 | 6114 ft | 277 kts | 85° |
| 2026-05-06 07:49 | 40.74913 | 22.79597 | 5715 ft | 269 kts | 85° |
| 2026-05-06 07:50 | 40.75060 | 22.82020 | 5320 ft | 263 kts | 85° |
| 2026-05-06 07:50 | 40.75205 | 22.84446 | 4922 ft | 259 kts | 85° |
| 2026-05-06 07:50 | 40.75108 | 22.86772 | 4510 ft | 254 kts | 105° |
| 2026-05-06 07:50 | 40.74325 | 22.88787 | 4230 ft | 247 kts | 130° |
| 2026-05-06 07:51 | 40.73039 | 22.90190 | 3984 ft | 238 kts | 152° |
| 2026-05-06 07:51 | 40.71487 | 22.90873 | 3707 ft | 233 kts | 167° |
| 2026-05-06 07:51 | 40.69924 | 22.91369 | 3402 ft | 226 kts | 167° |
| 2026-05-06 07:51 | 40.68443 | 22.91846 | 3094 ft | 213 kts | 166° |
| 2026-05-06 07:52 | 40.67040 | 22.92296 | 2828 ft | 201 kts | 166° |
| 2026-05-06 07:52 | 40.65744 | 22.92701 | 2744 ft | 182 kts | 166° |
| 2026-05-06 07:52 | 40.64551 | 22.93085 | 2491 ft | 171 kts | 166° |
| 2026-05-06 07:52 | 40.63443 | 22.93441 | 2289 ft | 155 kts | 166° |
| 2026-05-06 07:53 | 40.62464 | 22.93760 | 2080 ft | 137 kts | 166° |
| 2026-05-06 07:53 | 40.61561 | 22.94050 | 1829 ft | 131 kts | 166° |
| 2026-05-06 07:53 | 40.60676 | 22.94330 | 1574 ft | 131 kts | 166° |
| 2026-05-06 07:53 | 40.59776 | 22.94617 | 1374 ft | 133 kts | 166° |
| 2026-05-06 07:54 | 40.58889 | 22.94903 | 1210 ft | 134 kts | 167° |
| 2026-05-06 07:54 | 40.57976 | 22.95193 | 1043 ft | 134 kts | 167° |
| 2026-05-06 07:54 | 40.57074 | 22.95491 | 891 ft | 135 kts | 166° |
| 2026-05-06 07:54 | 40.56172 | 22.95771 | 688 ft | 133 kts | 167° |
| 2026-05-06 07:55 | 40.55273 | 22.96061 | 459 ft | 134 kts | 166° |
| 2026-05-06 07:55 | 40.54367 | 22.96343 | 269 ft | 134 kts | 167° |
| 2026-05-06 07:55 | 40.53467 | 22.96633 | 122 ft | 132 kts | 167° |
| 2026-05-06 07:55 | 40.52600 | 22.96897 | 21 ft | 118 kts | 167° |
| 2026-05-06 07:56 | 40.51922 | 22.97111 | 14 ft | 82 kts | 166° |
| 2026-05-06 07:56 | 40.51556 | 22.97236 | 18 ft | 20 kts | 154° |
| 2026-05-06 07:56 | 40.51524 | 22.97371 | 15 ft | 14 kts | 77° |
| 2026-05-06 07:56 | 40.51555 | 22.97413 | 15 ft | 0 kts | 352° |
| 2026-05-06 07:57 | 40.51566 | 22.97411 | 15 ft | 3 kts | 351° |
| 2026-05-06 07:57 | 40.51582 | 22.97407 | 15 ft | 4 kts | 349° |
| 2026-05-06 07:57 | 40.51635 | 22.97391 | 15 ft | 11 kts | 343° |
| 2026-05-06 07:57 | 40.51727 | 22.97354 | 15 ft | 16 kts | 343° |
| 2026-05-06 07:58 | 40.51857 | 22.97315 | 14 ft | 23 kts | 348° |
| 2026-05-06 07:58 | 40.51984 | 22.97276 | 13 ft | 19 kts | 345° |
| 2026-05-06 07:58 | 40.52133 | 22.97229 | 14 ft | 25 kts | 348° |
| 2026-05-06 07:58 | 40.52284 | 22.97182 | 16 ft | 16 kts | 346° |
| 2026-05-06 07:59 | 40.52366 | 22.97180 | 15 ft | 9 kts | 28° |
| 2026-05-06 07:59 | 40.52390 | 22.97248 | 15 ft | 9 kts | 86° |
| 2026-05-06 07:59 | 40.52366 | 22.97326 | 15 ft | 11 kts | 132° |
| 2026-05-06 07:59 | 40.52303 | 22.97417 | 15 ft | 15 kts | 128° |
| 2026-05-06 08:00 | 40.52334 | 22.97512 | 15 ft | 11 kts | 40° |
| 2026-05-06 08:00 | 40.52370 | 22.97558 | 16 ft | 3 kts | 46° |
| 2026-05-06 08:00 | 40.52375 | 22.97564 | 15 ft | 0 kts | 46° |